Pocomoke — WDE5802 — position and weather

sailwx.info

Track history (hours):
 
Tides and Currents Weather Stations Pressure Air Temp Water Temp Dewpoint Dewpoint Depression Visibility Wind Speed Wind Dir Waves Ship Positions

Pocomoke

Owner: Vane Line Bunkering, Inc., Philadelphia, PA. More information available from US FCC via Universal Licensing System and Coast Guard Vessel Documentation Center.

Last reported at 2017-Oct-20 13:31 UTC. Time now 2017-Oct-20 14:13 UTC.
Position N 39°15' W 076°34'.

Length 33 m; draft 3 m.

Type: Tug. MMSI: 367371790.

Date/timePositionNaut miles runAvg speedWind from/ knotsBaromVisibWave heightAir tempDewpointWater temp
2017-Oct-20 13:31N 39°15' W 076°34'0 0.0
2017-Oct-20 13:01N 39°15' W 076°34'0 0.0
2017-Oct-20 12:31N 39°15' W 076°34'0 0.0
2017-Oct-20 12:01N 39°15' W 076°34'0 0.0
2017-Oct-20 11:31N 39°15' W 076°34'0 0.0
2017-Oct-20 11:01N 39°15' W 076°34'0 0.0
2017-Oct-20 10:31N 39°15' W 076°34'0 0.0
2017-Oct-20 10:01N 39°15' W 076°34'2 3.5
2017-Oct-20 09:31N 39°16' W 076°34'0 0.0
2017-Oct-20 09:01N 39°16' W 076°34'2 4.4
2017-Oct-20 08:31N 39°15' W 076°33'1 3.0
2017-Oct-20 08:01N 39°13' W 076°32'4 7.6
2017-Oct-20 07:30N 39°11' W 076°28'5 9.5
2017-Oct-20 07:01N 39°09' W 076°22'4 8.4
2017-Oct-20 06:30N 39°11' W 076°17'510.5
2017-Oct-20 06:01N 39°16' W 076°14'510.8
2017-Oct-20 05:31N 39°20' W 076°11'510.9
2017-Oct-20 05:00N 39°23' W 076°05'510.2
2017-Oct-20 04:30N 39°27' W 075°60'510.1
2017-Oct-20 04:01N 39°30' W 075°55'5 9.2
2017-Oct-20 03:30N 39°32' W 075°50'4 8.2
2017-Oct-20 03:00N 39°32' W 075°44'4 8.7
2017-Oct-20 02:30N 39°33' W 075°39'4 8.1
2017-Oct-20 02:00N 39°34' W 075°34'4 8.5
2017-Oct-20 01:31N 39°29' W 075°34'5 9.6
2017-Oct-20 01:00N 39°25' W 075°31'5 9.7
2017-Oct-20 00:30N 39°22' W 075°26'5 9.5
2017-Oct-20 00:01N 39°18' W 075°23'5 9.3
2017-Oct-19 23:30N 39°14' W 075°19'5 9.7
2017-Oct-19 23:01N 39°10' W 075°16'4 7.9
2017-Oct-19 22:31N 39°07' W 075°12'5 9.5
2017-Oct-19 22:00N 39°03' W 075°10'5 9.9
2017-Oct-19 21:29N 38°58' W 075°07'5 9.7
2017-Oct-19 20:57N 38°53' W 075°04'5 9.8
2017-Oct-19 20:28N 38°49' W 075°02'4 9.4
2017-Oct-19 20:00N 38°48' W 074°56'5 9.6
2017-Oct-19 19:30N 38°50' W 074°50'8 9.4
2017-Oct-19 18:38N 38°57' W 074°44'1 9.3
2017-Oct-19 18:29N 38°58' W 074°43'5 9.3
2017-Oct-19 18:00N 39°01' W 074°39'5 9.3
2017-Oct-19 17:29N 39°04' W 074°34'4 9.4
2017-Oct-19 17:00N 39°08' W 074°31'5 9.3
2017-Oct-19 16:27N 39°11' W 074°26'4 9.3
2017-Oct-19 16:00N 39°15' W 074°23'5 9.3
2017-Oct-19 15:30N 39°18' W 074°19'5 9.4
2017-Oct-19 14:58N 39°22' W 074°15'4 9.4
2017-Oct-19 14:30N 39°26' W 074°12'5 9.5
2017-Oct-19 14:00N 39°30' W 074°08'5 9.6
2017-Oct-19 13:30N 39°34' W 074°05'5 9.7
2017-Oct-19 13:00N 39°38' W 074°02'5 9.6
2017-Oct-19 12:30N 39°42' W 073°59'5 9.5
2017-Oct-19 12:00N 39°46' W 073°57'5 9.7
2017-Oct-19 11:30N 39°51' W 073°55'5 9.7
2017-Oct-19 11:00N 39°56' W 073°55'5 9.7
2017-Oct-19 10:31N 40°01' W 073°55'5 9.7
2017-Oct-19 10:01N 40°06' W 073°55'5 9.6
2017-Oct-19 09:30N 40°10' W 073°55'5 9.8
2017-Oct-19 09:01N 40°15' W 073°54'5 9.6
2017-Oct-19 08:30N 40°20' W 073°54'5 9.8
2017-Oct-19 08:00N 40°25' W 073°54'6 8.1
2017-Oct-19 07:19N 40°30' W 073°57'3 9.3
2017-Oct-19 07:00N 40°32' W 074°01'5 9.4
2017-Oct-19 06:31N 40°36' W 074°03'3 6.0
2017-Oct-19 06:01N 40°39' W 074°04'4 8.8
2017-Oct-19 05:30N 40°39' W 074°10'0 0.6
2017-Oct-19 05:00N 40°39' W 074°10'0 0.0
2017-Oct-19 04:30N 40°39' W 074°10'0 0.0
2017-Oct-19 04:00N 40°39' W 074°10'0 0.0
2017-Oct-19 03:30N 40°39' W 074°10'0 0.0
2017-Oct-19 03:00N 40°39' W 074°10'0 0.0
2017-Oct-19 02:30N 40°39' W 074°10'0 0.0
2017-Oct-19 02:01N 40°39' W 074°10'0 0.0
2017-Oct-19 01:30N 40°39' W 074°10'0 0.0
2017-Oct-19 01:01N 40°39' W 074°10'0 0.0
2017-Oct-19 00:31N 40°39' W 074°10'0 0.0
2017-Oct-19 00:00N 40°39' W 074°10'0 0.0
2017-Oct-18 23:30N 40°39' W 074°10'0 0.0
2017-Oct-18 23:00N 40°39' W 074°10'0 0.0
2017-Oct-18 22:30N 40°39' W 074°10'0 0.0
2017-Oct-18 22:00N 40°39' W 074°10'0 0.0
2017-Oct-18 21:31N 40°39' W 074°10'0 0.0
2017-Oct-18 21:01N 40°39' W 074°10'0 0.0
2017-Oct-18 20:30N 40°39' W 074°10'0 0.0
2017-Oct-18 20:01N 40°39' W 074°10'0 0.0
2017-Oct-18 19:31N 40°39' W 074°10'0 0.0
2017-Oct-18 19:01N 40°39' W 074°10'0 0.0
2017-Oct-18 18:29N 40°39' W 074°10'0 0.0
2017-Oct-18 18:00N 40°39' W 074°10'0 0.0
2017-Oct-18 17:30N 40°39' W 074°10'0 0.0
2017-Oct-18 17:00N 40°39' W 074°10'0 0.0
2017-Oct-18 16:30N 40°39' W 074°10'0 0.0
2017-Oct-18 16:00N 40°39' W 074°10'0 0.0
2017-Oct-18 15:31N 40°39' W 074°10'0 0.1
2017-Oct-18 15:00N 40°39' W 074°10'2 2.0
2017-Oct-18 14:00N 40°39' W 074°07'3 6.2
2017-Oct-18 13:30N 40°38' W 074°03'3 5.7
2017-Oct-18 13:00N 40°41' W 074°02'4 7.7
2017-Oct-18 12:31N 40°43' W 073°58'4 7.0
2017-Oct-18 12:00N 40°47' W 073°56'3 6.0
2017-Oct-18 11:30N 40°48' W 073°53'4 8.4
2017-Oct-18 11:00N 40°48' W 073°47'5 9.4
2017-Oct-18 10:30N 40°52' W 073°44'44 2.8
2017-Oct-17 18:38N 41°12' W 072°52'6 6.1
2017-Oct-17 17:43N 41°11' W 072°45'2 7.6
2017-Oct-17 17:31N 41°11' W 072°43'4 7.6
2017-Oct-17 17:01N 41°10' W 072°38'4 7.4
2017-Oct-17 16:31N 41°10' W 072°33'3 6.9
2017-Oct-17 16:01N 41°10' W 072°28'4 7.3
2017-Oct-17 15:31N 41°11' W 072°24'4 7.7
2017-Oct-17 15:01N 41°12' W 072°19'4 8.5
2017-Oct-17 14:30N 41°13' W 072°13'96 6.0
2017-Oct-16 22:34N 42°19' W 070°39'0 7.2
2017-Oct-16 22:30N 42°19' W 070°39'3 6.1
2017-Oct-16 22:00N 42°22' W 070°40'3 6.3
2017-Oct-16 21:30N 42°25' W 070°40'3 6.4
2017-Oct-16 21:00N 42°28' W 070°39'3 6.5
2017-Oct-16 20:31N 42°31' W 070°37'3 6.5
2017-Oct-16 20:01N 42°34' W 070°35'3 6.7
2017-Oct-16 19:30N 42°37' W 070°33'3 6.4
2017-Oct-16 19:00N 42°40' W 070°32'3 5.9
2017-Oct-16 18:31N 42°43' W 070°33'3 6.3
2017-Oct-16 18:00N 42°46' W 070°35'3 6.4
2017-Oct-16 17:30N 42°49' W 070°36'3 6.4
2017-Oct-16 17:00N 42°52' W 070°37'3 6.5
2017-Oct-16 16:30N 42°55' W 070°39'2 0.0
2017-Oct-14 23:28N 42°53' W 070°38'4 9.9
2017-Oct-14 23:00N 42°49' W 070°36'510.0
2017-Oct-14 22:30N 42°44' W 070°34'510.0
2017-Oct-14 22:00N 42°39' W 070°32'510.1
2017-Oct-14 21:30N 42°34' W 070°34'510.2
2017-Oct-14 21:00N 42°30' W 070°37'510.0
2017-Oct-14 20:30N 42°25' W 070°38'510.0
2017-Oct-14 20:01N 42°21' W 070°35'510.5
2017-Oct-14 19:30N 42°15' W 070°34'510.3
2017-Oct-14 19:00N 42°10' W 070°33'510.1
2017-Oct-14 18:30N 42°05' W 070°31'93 7.3
2017-Oct-14 05:52N 41°13' W 072°13'410.2
2017-Oct-14 05:30N 41°11' W 072°18'510.7
2017-Oct-14 05:00N 41°09' W 072°24'510.8
2017-Oct-14 04:30N 41°07' W 072°31'60 9.9
2017-Oct-13 22:24N 40°49' W 073°47'1 3.0
2017-Oct-13 22:00N 40°48' W 073°48'4 8.3
2017-Oct-13 21:29N 40°48' W 073°54'4 9.1
2017-Oct-13 21:00N 40°45' W 073°58'4 9.0
2017-Oct-13 20:30N 40°41' W 074°01'1 2.1
2017-Oct-13 20:00N 40°40' W 074°00'0 0.0
2017-Oct-13 19:30N 40°40' W 074°00'0 0.1
2017-Oct-13 19:00N 40°40' W 074°00'0 0.0
2017-Oct-13 18:30N 40°40' W 074°00'0 0.0
2017-Oct-13 18:00N 40°40' W 074°00'1 1.1
2017-Oct-13 17:30N 40°40' W 074°01'0 0.5
2017-Oct-13 17:00N 40°40' W 074°01'1 1.3
2017-Oct-13 16:30N 40°40' W 074°00'0 0.0
2017-Oct-13 16:00N 40°40' W 074°00'0 0.0
2017-Oct-13 15:30N 40°40' W 074°00'0 0.0
2017-Oct-13 15:00N 40°40' W 074°00'0 0.0
2017-Oct-13 14:29N 40°40' W 074°00'0 0.0
2017-Oct-13 14:00N 40°40' W 074°00'0 0.0
2017-Oct-13 13:30N 40°40' W 074°00'0 0.0
2017-Oct-13 13:00N 40°40' W 074°00'0 0.0
2017-Oct-13 12:30N 40°40' W 074°00'0 0.0
2017-Oct-13 12:00N 40°40' W 074°00'0 0.1
2017-Oct-13 11:30N 40°40' W 074°00'0 0.0
2017-Oct-13 11:00N 40°40' W 074°00'0 0.0
2017-Oct-13 10:30N 40°40' W 074°00'0 0.5
2017-Oct-13 10:00N 40°40' W 074°00'0 0.1
2017-Oct-13 09:30N 40°40' W 074°00'0 0.0
2017-Oct-13 09:00N 40°40' W 074°00'0 0.0
2017-Oct-13 08:30N 40°40' W 074°00'0 0.0
2017-Oct-13 08:00N 40°40' W 074°00'4 7.5
2017-Oct-13 07:30N 40°39' W 074°05'0 0.0
2017-Oct-13 07:00N 40°39' W 074°05'0 0.2
2017-Oct-13 06:30N 40°39' W 074°05'2 4.0
2017-Oct-13 06:00N 40°39' W 074°03'2 3.9
2017-Oct-13 05:30N 40°40' W 074°00'0 0.0
2017-Oct-13 05:00N 40°40' W 074°00'0 0.0
2017-Oct-13 04:30N 40°40' W 074°00'0 0.0
2017-Oct-13 04:00N 40°40' W 074°00'3 5.2
2017-Oct-13 03:30N 40°39' W 074°04'1 2.6
2017-Oct-13 02:59N 40°39' W 074°05'0 0.3
2017-Oct-13 02:30N 40°39' W 074°05'4 7.1
2017-Oct-13 02:00N 40°39' W 074°10'1 2.4
2017-Oct-13 01:30N 40°39' W 074°11'2 3.1
2017-Oct-13 01:00N 40°39' W 074°09'5 9.6
2017-Oct-13 00:30N 40°39' W 074°03'2 4.0
2017-Oct-12 23:59N 40°40' W 074°00'0 0.0
2017-Oct-12 23:30N 40°40' W 074°00'0 0.0
2017-Oct-12 23:00N 40°40' W 074°00'0 0.0
2017-Oct-12 22:30N 40°40' W 074°00'0 0.0
2017-Oct-12 22:00N 40°40' W 074°00'0 0.0
2017-Oct-12 21:30N 40°40' W 074°00'0 0.0
2017-Oct-12 21:00N 40°40' W 074°00'0 0.5
2017-Oct-12 20:30N 40°40' W 074°00'0 0.5
2017-Oct-12 20:00N 40°40' W 074°00'4 8.8
2017-Oct-12 19:29N 40°39' W 074°06'4 8.1
2017-Oct-12 19:00N 40°39' W 074°11'0 0.7
2017-Oct-12 18:30N 40°39' W 074°11'3 5.6
2017-Oct-12 17:59N 40°39' W 074°07'0 0.0
2017-Oct-12 17:30N 40°39' W 074°07'0 0.0
2017-Oct-12 17:00N 40°39' W 074°07'0 0.0
2017-Oct-12 16:30N 40°39' W 074°07'0 0.0
2017-Oct-12 16:00N 40°39' W 074°07'0 0.0
2017-Oct-12 15:30N 40°39' W 074°07'0 0.0
2017-Oct-12 15:00N 40°39' W 074°07'1 1.2
2017-Oct-12 14:30N 40°39' W 074°06'0 0.7
2017-Oct-12 14:00N 40°39' W 074°06'0 0.0
2017-Oct-12 13:30N 40°39' W 074°06'1 1.8
2017-Oct-12 13:00N 40°39' W 074°07'3 5.9
2017-Oct-12 12:30N 40°42' W 074°08'0 0.5
2017-Oct-12 12:00N 40°42' W 074°09'1 1.6
2017-Oct-12 11:30N 40°41' W 074°09'0 0.0
2017-Oct-12 11:00N 40°41' W 074°09'0 0.0
2017-Oct-12 10:30N 40°41' W 074°09'0 0.0
2017-Oct-12 10:00N 40°41' W 074°09'0 0.0
2017-Oct-12 09:30N 40°41' W 074°09'0 0.0
2017-Oct-12 09:00N 40°41' W 074°09'0 0.0
2017-Oct-12 08:30N 40°41' W 074°09'0 0.0
2017-Oct-12 08:00N 40°41' W 074°09'0 0.0
2017-Oct-12 07:30N 40°41' W 074°09'0 0.0
2017-Oct-12 07:00N 40°41' W 074°09'0 0.0
2017-Oct-12 06:30N 40°41' W 074°09'0 0.0
2017-Oct-12 06:00N 40°41' W 074°09'0 0.0
2017-Oct-12 05:30N 40°41' W 074°09'0 0.0
2017-Oct-12 05:00N 40°41' W 074°09'0 0.2
2017-Oct-12 04:30N 40°41' W 074°09'3 5.1
2017-Oct-12 04:00N 40°39' W 074°09'2 4.4
2017-Oct-12 03:30N 40°39' W 074°06'3 6.3
2017-Oct-12 03:00N 40°39' W 074°02'2 3.2
2017-Oct-12 02:30N 40°40' W 074°00'0 0.0
2017-Oct-12 02:00N 40°40' W 074°00'0 0.6
2017-Oct-12 01:30N 40°40' W 074°00'0 0.0
2017-Oct-12 01:00N 40°40' W 074°00'0 0.0
2017-Oct-12 00:30N 40°40' W 074°00'2 3.1
2017-Oct-12 00:00N 40°39' W 074°02'3 5.0
2017-Oct-11 23:30N 40°39' W 074°05'0 0.0
2017-Oct-11 23:00N 40°39' W 074°05'2 4.6
2017-Oct-11 22:30N 40°39' W 074°08'3 4.7
2017-Oct-11 21:58N 40°39' W 074°11'0 0.0
2017-Oct-11 21:30N 40°39' W 074°11'4 8.4
2017-Oct-11 21:00N 40°39' W 074°06'1 2.8
2017-Oct-11 20:30N 40°40' W 074°05'0 0.0
2017-Oct-11 20:00N 40°40' W 074°05'0 0.1
2017-Oct-11 19:30N 40°40' W 074°05'2 3.0
2017-Oct-11 19:00N 40°39' W 074°06'1 2.9
2017-Oct-11 18:30N 40°39' W 074°04'3 6.5
2017-Oct-11 18:00N 40°40' W 074°00'0 0.5
2017-Oct-11 17:30N 40°40' W 074°00'0 0.0
2017-Oct-11 17:00N 40°40' W 074°00'7 0.4
2017-Oct-11 00:00N 40°41' W 074°10'0 0.0
2017-Oct-10 23:30N 40°41' W 074°10'0 0.0
2017-Oct-10 23:00N 40°41' W 074°10'0 0.0
2017-Oct-10 22:30N 40°41' W 074°10'0 0.0
2017-Oct-10 22:00N 40°41' W 074°10'0 0.2
2017-Oct-10 21:30N 40°41' W 074°09'2 4.0
2017-Oct-10 21:00N 40°39' W 074°09'3 5.5
2017-Oct-10 20:30N 40°39' W 074°05'0 0.6
2017-Oct-10 20:00N 40°39' W 074°05'3 6.7
2017-Oct-10 19:30N 40°40' W 074°01'1 1.2
2017-Oct-10 19:00N 40°39' W 074°01'3 6.2
2017-Oct-10 18:30N 40°39' W 074°06'5 9.5
2017-Oct-10 18:00N 40°38' W 074°12'4 8.5
2017-Oct-10 17:29N 40°34' W 074°13'2 0.6
2017-Oct-10 13:42N 40°36' W 074°12'  
Track history (hours):
 
Tides and Currents Weather Stations Pressure Air Temp Water Temp Dewpoint Dewpoint Depression Visibility Wind Speed Wind Dir Waves Ship Positions

Pocomoke

Owner: Vane Line Bunkering, Inc., Philadelphia, PA. More information available from US FCC via Universal Licensing System and Coast Guard Vessel Documentation Center.

Last reported at 2017-Oct-20 13:31 UTC. Time now 2017-Oct-20 14:13 UTC.
Position N 39°15' W 076°34'.

Length 33 m; draft 3 m.

Type: Tug. MMSI: 367371790.

Date/timePositionNaut miles runAvg speedWind from/ knotsBaromVisibWave heightAir tempDewpointWater temp
2017-Oct-20 13:31N 39°15' W 076°34'0 0.0
2017-Oct-20 13:01N 39°15' W 076°34'0 0.0
2017-Oct-20 12:31N 39°15' W 076°34'0 0.0
2017-Oct-20 12:01N 39°15' W 076°34'0 0.0
2017-Oct-20 11:31N 39°15' W 076°34'0 0.0
2017-Oct-20 11:01N 39°15' W 076°34'0 0.0
2017-Oct-20 10:31N 39°15' W 076°34'0 0.0
2017-Oct-20 10:01N 39°15' W 076°34'2 3.5
2017-Oct-20 09:31N 39°16' W 076°34'0 0.0
2017-Oct-20 09:01N 39°16' W 076°34'2 4.4
2017-Oct-20 08:31N 39°15' W 076°33'1 3.0
2017-Oct-20 08:01N 39°13' W 076°32'4 7.6
2017-Oct-20 07:30N 39°11' W 076°28'5 9.5
2017-Oct-20 07:01N 39°09' W 076°22'4 8.4
2017-Oct-20 06:30N 39°11' W 076°17'510.5
2017-Oct-20 06:01N 39°16' W 076°14'510.8
2017-Oct-20 05:31N 39°20' W 076°11'510.9
2017-Oct-20 05:00N 39°23' W 076°05'510.2
2017-Oct-20 04:30N 39°27' W 075°60'510.1
2017-Oct-20 04:01N 39°30' W 075°55'5 9.2
2017-Oct-20 03:30N 39°32' W 075°50'4 8.2
2017-Oct-20 03:00N 39°32' W 075°44'4 8.7
2017-Oct-20 02:30N 39°33' W 075°39'4 8.1
2017-Oct-20 02:00N 39°34' W 075°34'4 8.5
2017-Oct-20 01:31N 39°29' W 075°34'5 9.6
2017-Oct-20 01:00N 39°25' W 075°31'5 9.7
2017-Oct-20 00:30N 39°22' W 075°26'5 9.5
2017-Oct-20 00:01N 39°18' W 075°23'5 9.3
2017-Oct-19 23:30N 39°14' W 075°19'5 9.7
2017-Oct-19 23:01N 39°10' W 075°16'4 7.9
2017-Oct-19 22:31N 39°07' W 075°12'5 9.5
2017-Oct-19 22:00N 39°03' W 075°10'5 9.9
2017-Oct-19 21:29N 38°58' W 075°07'5 9.7
2017-Oct-19 20:57N 38°53' W 075°04'5 9.8
2017-Oct-19 20:28N 38°49' W 075°02'4 9.4
2017-Oct-19 20:00N 38°48' W 074°56'5 9.6
2017-Oct-19 19:30N 38°50' W 074°50'8 9.4
2017-Oct-19 18:38N 38°57' W 074°44'1 9.3
2017-Oct-19 18:29N 38°58' W 074°43'5 9.3
2017-Oct-19 18:00N 39°01' W 074°39'5 9.3
2017-Oct-19 17:29N 39°04' W 074°34'4 9.4
2017-Oct-19 17:00N 39°08' W 074°31'5 9.3
2017-Oct-19 16:27N 39°11' W 074°26'4 9.3
2017-Oct-19 16:00N 39°15' W 074°23'5 9.3
2017-Oct-19 15:30N 39°18' W 074°19'5 9.4
2017-Oct-19 14:58N 39°22' W 074°15'4 9.4
2017-Oct-19 14:30N 39°26' W 074°12'5 9.5
2017-Oct-19 14:00N 39°30' W 074°08'5 9.6
2017-Oct-19 13:30N 39°34' W 074°05'5 9.7
2017-Oct-19 13:00N 39°38' W 074°02'5 9.6
2017-Oct-19 12:30N 39°42' W 073°59'5 9.5
2017-Oct-19 12:00N 39°46' W 073°57'5 9.7
2017-Oct-19 11:30N 39°51' W 073°55'5 9.7
2017-Oct-19 11:00N 39°56' W 073°55'5 9.7
2017-Oct-19 10:31N 40°01' W 073°55'5 9.7
2017-Oct-19 10:01N 40°06' W 073°55'5 9.6
2017-Oct-19 09:30N 40°10' W 073°55'5 9.8
2017-Oct-19 09:01N 40°15' W 073°54'5 9.6
2017-Oct-19 08:30N 40°20' W 073°54'5 9.8
2017-Oct-19 08:00N 40°25' W 073°54'6 8.1
2017-Oct-19 07:19N 40°30' W 073°57'3 9.3
2017-Oct-19 07:00N 40°32' W 074°01'5 9.4
2017-Oct-19 06:31N 40°36' W 074°03'3 6.0
2017-Oct-19 06:01N 40°39' W 074°04'4 8.8
2017-Oct-19 05:30N 40°39' W 074°10'0 0.6
2017-Oct-19 05:00N 40°39' W 074°10'0 0.0
2017-Oct-19 04:30N 40°39' W 074°10'0 0.0
2017-Oct-19 04:00N 40°39' W 074°10'0 0.0
2017-Oct-19 03:30N 40°39' W 074°10'0 0.0
2017-Oct-19 03:00N 40°39' W 074°10'0 0.0
2017-Oct-19 02:30N 40°39' W 074°10'0 0.0
2017-Oct-19 02:01N 40°39' W 074°10'0 0.0
2017-Oct-19 01:30N 40°39' W 074°10'0 0.0
2017-Oct-19 01:01N 40°39' W 074°10'0 0.0
2017-Oct-19 00:31N 40°39' W 074°10'0 0.0
2017-Oct-19 00:00N 40°39' W 074°10'0 0.0
2017-Oct-18 23:30N 40°39' W 074°10'0 0.0
2017-Oct-18 23:00N 40°39' W 074°10'0 0.0
2017-Oct-18 22:30N 40°39' W 074°10'0 0.0
2017-Oct-18 22:00N 40°39' W 074°10'0 0.0
2017-Oct-18 21:31N 40°39' W 074°10'0 0.0
2017-Oct-18 21:01N 40°39' W 074°10'0 0.0
2017-Oct-18 20:30N 40°39' W 074°10'0 0.0
2017-Oct-18 20:01N 40°39' W 074°10'0 0.0
2017-Oct-18 19:31N 40°39' W 074°10'0 0.0
2017-Oct-18 19:01N 40°39' W 074°10'0 0.0
2017-Oct-18 18:29N 40°39' W 074°10'0 0.0
2017-Oct-18 18:00N 40°39' W 074°10'0 0.0
2017-Oct-18 17:30N 40°39' W 074°10'0 0.0
2017-Oct-18 17:00N 40°39' W 074°10'0 0.0
2017-Oct-18 16:30N 40°39' W 074°10'0 0.0
2017-Oct-18 16:00N 40°39' W 074°10'0 0.0
2017-Oct-18 15:31N 40°39' W 074°10'0 0.1
2017-Oct-18 15:00N 40°39' W 074°10'2 2.0
2017-Oct-18 14:00N 40°39' W 074°07'3 6.2
2017-Oct-18 13:30N 40°38' W 074°03'3 5.7
2017-Oct-18 13:00N 40°41' W 074°02'4 7.7
2017-Oct-18 12:31N 40°43' W 073°58'4 7.0
2017-Oct-18 12:00N 40°47' W 073°56'3 6.0
2017-Oct-18 11:30N 40°48' W 073°53'4 8.4
2017-Oct-18 11:00N 40°48' W 073°47'5 9.4
2017-Oct-18 10:30N 40°52' W 073°44'44 2.8
2017-Oct-17 18:38N 41°12' W 072°52'6 6.1
2017-Oct-17 17:43N 41°11' W 072°45'2 7.6
2017-Oct-17 17:31N 41°11' W 072°43'4 7.6
2017-Oct-17 17:01N 41°10' W 072°38'4 7.4
2017-Oct-17 16:31N 41°10' W 072°33'3 6.9
2017-Oct-17 16:01N 41°10' W 072°28'4 7.3
2017-Oct-17 15:31N 41°11' W 072°24'4 7.7
2017-Oct-17 15:01N 41°12' W 072°19'4 8.5
2017-Oct-17 14:30N 41°13' W 072°13'96 6.0
2017-Oct-16 22:34N 42°19' W 070°39'0 7.2
2017-Oct-16 22:30N 42°19' W 070°39'3 6.1
2017-Oct-16 22:00N 42°22' W 070°40'3 6.3
2017-Oct-16 21:30N 42°25' W 070°40'3 6.4
2017-Oct-16 21:00N 42°28' W 070°39'3 6.5
2017-Oct-16 20:31N 42°31' W 070°37'3 6.5
2017-Oct-16 20:01N 42°34' W 070°35'3 6.7
2017-Oct-16 19:30N 42°37' W 070°33'3 6.4
2017-Oct-16 19:00N 42°40' W 070°32'3 5.9
2017-Oct-16 18:31N 42°43' W 070°33'3 6.3
2017-Oct-16 18:00N 42°46' W 070°35'3 6.4
2017-Oct-16 17:30N 42°49' W 070°36'3 6.4
2017-Oct-16 17:00N 42°52' W 070°37'3 6.5
2017-Oct-16 16:30N 42°55' W 070°39'2 0.0
2017-Oct-14 23:28N 42°53' W 070°38'4 9.9
2017-Oct-14 23:00N 42°49' W 070°36'510.0
2017-Oct-14 22:30N 42°44' W 070°34'510.0
2017-Oct-14 22:00N 42°39' W 070°32'510.1
2017-Oct-14 21:30N 42°34' W 070°34'510.2
2017-Oct-14 21:00N 42°30' W 070°37'510.0
2017-Oct-14 20:30N 42°25' W 070°38'510.0
2017-Oct-14 20:01N 42°21' W 070°35'510.5
2017-Oct-14 19:30N 42°15' W 070°34'510.3
2017-Oct-14 19:00N 42°10' W 070°33'510.1
2017-Oct-14 18:30N 42°05' W 070°31'93 7.3
2017-Oct-14 05:52N 41°13' W 072°13'410.2
2017-Oct-14 05:30N 41°11' W 072°18'510.7
2017-Oct-14 05:00N 41°09' W 072°24'510.8
2017-Oct-14 04:30N 41°07' W 072°31'60 9.9
2017-Oct-13 22:24N 40°49' W 073°47'1 3.0
2017-Oct-13 22:00N 40°48' W 073°48'4 8.3
2017-Oct-13 21:29N 40°48' W 073°54'4 9.1
2017-Oct-13 21:00N 40°45' W 073°58'4 9.0
2017-Oct-13 20:30N 40°41' W 074°01'1 2.1
2017-Oct-13 20:00N 40°40' W 074°00'0 0.0
2017-Oct-13 19:30N 40°40' W 074°00'0 0.1
2017-Oct-13 19:00N 40°40' W 074°00'0 0.0
2017-Oct-13 18:30N 40°40' W 074°00'0 0.0
2017-Oct-13 18:00N 40°40' W 074°00'1 1.1
2017-Oct-13 17:30N 40°40' W 074°01'0 0.5
2017-Oct-13 17:00N 40°40' W 074°01'1 1.3
2017-Oct-13 16:30N 40°40' W 074°00'0 0.0
2017-Oct-13 16:00N 40°40' W 074°00'0 0.0
2017-Oct-13 15:30N 40°40' W 074°00'0 0.0
2017-Oct-13 15:00N 40°40' W 074°00'0 0.0
2017-Oct-13 14:29N 40°40' W 074°00'0 0.0
2017-Oct-13 14:00N 40°40' W 074°00'0 0.0
2017-Oct-13 13:30N 40°40' W 074°00'0 0.0
2017-Oct-13 13:00N 40°40' W 074°00'0 0.0
2017-Oct-13 12:30N 40°40' W 074°00'0 0.0
2017-Oct-13 12:00N 40°40' W 074°00'0 0.1
2017-Oct-13 11:30N 40°40' W 074°00'0 0.0
2017-Oct-13 11:00N 40°40' W 074°00'0 0.0
2017-Oct-13 10:30N 40°40' W 074°00'0 0.5
2017-Oct-13 10:00N 40°40' W 074°00'0 0.1
2017-Oct-13 09:30N 40°40' W 074°00'0 0.0
2017-Oct-13 09:00N 40°40' W 074°00'0 0.0
2017-Oct-13 08:30N 40°40' W 074°00'0 0.0
2017-Oct-13 08:00N 40°40' W 074°00'4 7.5
2017-Oct-13 07:30N 40°39' W 074°05'0 0.0
2017-Oct-13 07:00N 40°39' W 074°05'0 0.2
2017-Oct-13 06:30N 40°39' W 074°05'2 4.0
2017-Oct-13 06:00N 40°39' W 074°03'2 3.9
2017-Oct-13 05:30N 40°40' W 074°00'0 0.0
2017-Oct-13 05:00N 40°40' W 074°00'0 0.0
2017-Oct-13 04:30N 40°40' W 074°00'0 0.0
2017-Oct-13 04:00N 40°40' W 074°00'3 5.2
2017-Oct-13 03:30N 40°39' W 074°04'1 2.6
2017-Oct-13 02:59N 40°39' W 074°05'0 0.3
2017-Oct-13 02:30N 40°39' W 074°05'4 7.1
2017-Oct-13 02:00N 40°39' W 074°10'1 2.4
2017-Oct-13 01:30N 40°39' W 074°11'2 3.1
2017-Oct-13 01:00N 40°39' W 074°09'5 9.6
2017-Oct-13 00:30N 40°39' W 074°03'2 4.0
2017-Oct-12 23:59N 40°40' W 074°00'0 0.0
2017-Oct-12 23:30N 40°40' W 074°00'0 0.0
2017-Oct-12 23:00N 40°40' W 074°00'0 0.0
2017-Oct-12 22:30N 40°40' W 074°00'0 0.0
2017-Oct-12 22:00N 40°40' W 074°00'0 0.0
2017-Oct-12 21:30N 40°40' W 074°00'0 0.0
2017-Oct-12 21:00N 40°40' W 074°00'0 0.5
2017-Oct-12 20:30N 40°40' W 074°00'0 0.5
2017-Oct-12 20:00N 40°40' W 074°00'4 8.8
2017-Oct-12 19:29N 40°39' W 074°06'4 8.1
2017-Oct-12 19:00N 40°39' W 074°11'0 0.7
2017-Oct-12 18:30N 40°39' W 074°11'3 5.6
2017-Oct-12 17:59N 40°39' W 074°07'0 0.0
2017-Oct-12 17:30N 40°39' W 074°07'0 0.0
2017-Oct-12 17:00N 40°39' W 074°07'0 0.0
2017-Oct-12 16:30N 40°39' W 074°07'0 0.0
2017-Oct-12 16:00N 40°39' W 074°07'0 0.0
2017-Oct-12 15:30N 40°39' W 074°07'0 0.0
2017-Oct-12 15:00N 40°39' W 074°07'1 1.2
2017-Oct-12 14:30N 40°39' W 074°06'0 0.7
2017-Oct-12 14:00N 40°39' W 074°06'0 0.0
2017-Oct-12 13:30N 40°39' W 074°06'1 1.8
2017-Oct-12 13:00N 40°39' W 074°07'3 5.9
2017-Oct-12 12:30N 40°42' W 074°08'0 0.5
2017-Oct-12 12:00N 40°42' W 074°09'1 1.6
2017-Oct-12 11:30N 40°41' W 074°09'0 0.0
2017-Oct-12 11:00N 40°41' W 074°09'0 0.0
2017-Oct-12 10:30N 40°41' W 074°09'0 0.0
2017-Oct-12 10:00N 40°41' W 074°09'0 0.0
2017-Oct-12 09:30N 40°41' W 074°09'0 0.0
2017-Oct-12 09:00N 40°41' W 074°09'0 0.0
2017-Oct-12 08:30N 40°41' W 074°09'0 0.0
2017-Oct-12 08:00N 40°41' W 074°09'0 0.0
2017-Oct-12 07:30N 40°41' W 074°09'0 0.0
2017-Oct-12 07:00N 40°41' W 074°09'0 0.0
2017-Oct-12 06:30N 40°41' W 074°09'0 0.0
2017-Oct-12 06:00N 40°41' W 074°09'0 0.0
2017-Oct-12 05:30N 40°41' W 074°09'0 0.0
2017-Oct-12 05:00N 40°41' W 074°09'0 0.2
2017-Oct-12 04:30N 40°41' W 074°09'3 5.1
2017-Oct-12 04:00N 40°39' W 074°09'2 4.4
2017-Oct-12 03:30N 40°39' W 074°06'3 6.3
2017-Oct-12 03:00N 40°39' W 074°02'2 3.2
2017-Oct-12 02:30N 40°40' W 074°00'0 0.0
2017-Oct-12 02:00N 40°40' W 074°00'0 0.6
2017-Oct-12 01:30N 40°40' W 074°00'0 0.0
2017-Oct-12 01:00N 40°40' W 074°00'0 0.0
2017-Oct-12 00:30N 40°40' W 074°00'2 3.1
2017-Oct-12 00:00N 40°39' W 074°02'3 5.0
2017-Oct-11 23:30N 40°39' W 074°05'0 0.0
2017-Oct-11 23:00N 40°39' W 074°05'2 4.6
2017-Oct-11 22:30N 40°39' W 074°08'3 4.7
2017-Oct-11 21:58N 40°39' W 074°11'0 0.0
2017-Oct-11 21:30N 40°39' W 074°11'4 8.4
2017-Oct-11 21:00N 40°39' W 074°06'1 2.8
2017-Oct-11 20:30N 40°40' W 074°05'0 0.0
2017-Oct-11 20:00N 40°40' W 074°05'0 0.1
2017-Oct-11 19:30N 40°40' W 074°05'2 3.0
2017-Oct-11 19:00N 40°39' W 074°06'1 2.9
2017-Oct-11 18:30N 40°39' W 074°04'3 6.5
2017-Oct-11 18:00N 40°40' W 074°00'0 0.5
2017-Oct-11 17:30N 40°40' W 074°00'0 0.0
2017-Oct-11 17:00N 40°40' W 074°00'7 0.4
2017-Oct-11 00:00N 40°41' W 074°10'0 0.0
2017-Oct-10 23:30N 40°41' W 074°10'0 0.0
2017-Oct-10 23:00N 40°41' W 074°10'0 0.0
2017-Oct-10 22:30N 40°41' W 074°10'0 0.0
2017-Oct-10 22:00N 40°41' W 074°10'0 0.2
2017-Oct-10 21:30N 40°41' W 074°09'2 4.0
2017-Oct-10 21:00N 40°39' W 074°09'3 5.5
2017-Oct-10 20:30N 40°39' W 074°05'0 0.6
2017-Oct-10 20:00N 40°39' W 074°05'3 6.7
2017-Oct-10 19:30N 40°40' W 074°01'1 1.2
2017-Oct-10 19:00N 40°39' W 074°01'3 6.2
2017-Oct-10 18:30N 40°39' W 074°06'5 9.5
2017-Oct-10 18:00N 40°38' W 074°12'4 8.5
2017-Oct-10 17:29N 40°34' W 074°13'2 0.6
2017-Oct-10 13:42N 40°36' W 074°12'  

Dump ship's entire track history